createdAt,value
2024-04-22T00:01:20.124Z,4.88
2024-04-22T00:03:47.091Z,4.00
2024-04-22T00:06:14.055Z,4.97
2024-04-22T00:08:44.505Z,3.60
2024-04-22T00:11:17.940Z,4.22
2024-04-22T00:13:54.254Z,4.05
2024-04-22T00:16:21.399Z,3.60
2024-04-22T00:18:48.862Z,3.35
2024-04-22T00:21:20.939Z,3.65
2024-04-22T00:23:58.877Z,3.75
2024-04-22T00:26:37.370Z,2.95
2024-04-22T00:29:06.528Z,2.90
2024-04-22T00:31:47.543Z,2.90
2024-04-22T00:34:14.765Z,3.13
2024-04-22T00:36:44.781Z,3.45
2024-04-22T00:39:18.900Z,3.65
2024-04-22T00:41:45.754Z,3.33
2024-04-22T00:44:13.111Z,2.80
2024-04-22T00:46:41.114Z,3.45
2024-04-22T00:49:08.694Z,3.47
2024-04-22T00:51:36.343Z,2.95
2024-04-22T00:54:03.396Z,3.95
2024-04-22T00:56:30.372Z,4.63
2024-04-22T00:59:00.738Z,3.97
2024-04-22T01:01:36.941Z,4.35
2024-04-22T01:04:06.774Z,5.20
2024-04-22T01:06:37.464Z,4.40
2024-04-22T01:09:09.904Z,3.88
2024-04-22T01:11:38.354Z,4.47
2024-04-22T01:14:05.621Z,4.50
2024-04-22T01:16:34.751Z,4.38
2024-04-22T01:19:01.717Z,4.90
2024-04-22T01:21:31.120Z,5.18
2024-04-22T01:24:01.507Z,4.72
2024-04-22T01:26:28.808Z,5.43
2024-04-22T01:28:58.705Z,4.93
2024-04-22T01:31:49.721Z,4.80
2024-04-22T01:34:20.588Z,5.78
2024-04-22T01:36:55.408Z,4.68
2024-04-22T01:39:44.813Z,4.90
2024-04-22T01:42:49.709Z,4.90
2024-04-22T01:45:19.369Z,4.65
2024-04-22T01:47:49.547Z,6.13
2024-04-22T01:50:27.029Z,8.13
2024-04-22T01:53:01.031Z,6.95
2024-04-22T01:55:30.467Z,7.38
2024-04-22T01:57:57.423Z,6.30
2024-04-22T02:00:24.575Z,10.68
2024-04-22T02:02:55.141Z,8.25
2024-04-22T02:05:23.923Z,6.85
2024-04-22T02:07:54.367Z,8.50
2024-04-22T02:10:25.585Z,7.93
2024-04-22T02:12:52.882Z,8.43
2024-04-22T02:15:19.868Z,7.68
2024-04-22T02:17:49.115Z,8.77
2024-04-22T02:20:16.196Z,8.90
2024-04-22T02:22:46.447Z,9.25
2024-04-22T02:25:13.802Z,8.85
2024-04-22T02:27:46.777Z,8.32
2024-04-22T02:30:19.290Z,8.88
2024-04-22T02:32:46.752Z,9.27
2024-04-22T02:35:16.182Z,7.95
2024-04-22T02:37:43.749Z,9.18
2024-04-22T02:40:11.100Z,8.52
2024-04-22T02:42:43.408Z,8.55
2024-04-22T02:45:18.125Z,9.88
2024-04-22T02:47:50.527Z,7.38
2024-04-22T02:50:19.125Z,9.10
2024-04-22T02:52:47.957Z,9.15
2024-04-22T02:55:17.747Z,10.95
2024-04-22T02:57:44.650Z,9.70
2024-04-22T03:00:12.590Z,8.02
2024-04-22T03:02:39.717Z,7.97
2024-04-22T03:05:22.013Z,8.82
2024-04-22T03:07:53.330Z,8.68
2024-04-22T03:10:20.336Z,9.10
2024-04-22T03:12:47.314Z,7.50
2024-04-22T03:15:14.196Z,7.47
2024-04-22T03:17:43.604Z,9.43
2024-04-22T03:20:13.181Z,7.60
2024-04-22T03:22:41.513Z,7.88
2024-04-22T03:25:10.848Z,8.63
2024-04-22T03:27:42.767Z,10.02
2024-04-22T03:30:12.432Z,8.93
2024-04-22T03:32:56.170Z,10.23
2024-04-22T03:35:33.459Z,8.60
2024-04-22T03:38:00.695Z,8.95
2024-04-22T03:40:36.370Z,10.23
2024-04-22T03:43:09.783Z,9.57
2024-04-22T03:45:36.771Z,9.02
2024-04-22T03:48:42.398Z,8.82
2024-04-22T03:51:12.135Z,9.43
2024-04-22T03:53:41.468Z,8.73
2024-04-22T03:58:38.960Z,10.15
2024-04-22T03:59:02.755Z,8.05
2024-04-22T04:01:31.904Z,8.80
2024-04-22T04:04:00.816Z,11.65
2024-04-22T04:06:35.881Z,7.40
2024-04-22T04:09:08.931Z,6.40
2024-04-22T04:11:40.749Z,10.15
2024-04-22T04:16:45.139Z,9.48
2024-04-22T04:19:33.668Z,8.48
2024-04-22T04:22:08.328Z,9.35
2024-04-22T04:27:40.806Z,8.82
2024-04-22T04:30:15.479Z,6.85
2024-04-22T04:32:44.684Z,10.57
2024-04-22T04:35:21.232Z,8.18
2024-04-22T04:37:51.626Z,8.10
2024-04-22T04:40:33.206Z,9.60
2024-04-22T04:43:05.211Z,8.20
2024-04-22T04:46:09.302Z,9.63
2024-04-22T04:48:36.388Z,9.40
2024-04-22T04:51:15.024Z,9.10
2024-04-22T04:53:51.892Z,9.05
2024-04-22T04:56:21.582Z,9.50
2024-04-22T04:58:49.337Z,8.43
2024-04-22T05:01:21.714Z,8.65
2024-04-22T05:04:06.397Z,9.10
2024-04-22T05:06:38.551Z,8.27
2024-04-22T05:09:08.101Z,10.45
2024-04-22T05:11:37.415Z,10.07
2024-04-22T05:14:05.414Z,9.00
2024-04-22T05:16:32.182Z,7.88
2024-04-22T05:18:58.977Z,8.75
2024-04-22T05:21:25.746Z,8.88
2024-04-22T05:23:52.430Z,9.85
2024-04-22T05:26:19.151Z,10.35
2024-04-22T05:28:47.224Z,9.90
2024-04-22T05:31:14.218Z,9.95
2024-04-22T05:33:59.643Z,8.82
2024-04-22T05:36:26.343Z,8.98
2024-04-22T05:38:59.307Z,11.80
2024-04-22T05:41:26.459Z,10.00
2024-04-22T05:43:53.363Z,8.75
2024-04-22T05:46:21.788Z,7.93
2024-04-22T05:48:51.920Z,12.85
2024-04-22T05:51:18.913Z,9.60
2024-04-22T05:53:50.880Z,10.30
2024-04-22T05:56:17.710Z,9.38
2024-04-22T05:58:44.950Z,10.52
2024-04-22T06:01:15.650Z,8.25
2024-04-22T06:03:42.640Z,11.02
2024-04-22T06:06:09.605Z,8.50
2024-04-22T06:08:41.582Z,7.57
2024-04-22T06:11:13.531Z,10.77
2024-04-22T06:13:40.730Z,7.03
2024-04-22T06:16:07.912Z,8.35
2024-04-22T06:18:35.009Z,6.68
2024-04-22T06:21:02.037Z,8.95
2024-04-22T06:23:29.107Z,7.63
2024-04-22T06:26:06.721Z,9.00
2024-04-22T06:28:34.569Z,9.70
2024-04-22T06:31:01.704Z,8.15
2024-04-22T06:33:29.522Z,7.07
2024-04-22T06:35:57.108Z,8.32
2024-04-22T06:38:24.181Z,10.02
2024-04-22T06:40:51.200Z,8.50
2024-04-22T06:43:18.494Z,7.35
2024-04-22T06:45:45.630Z,7.20
2024-04-22T06:48:12.642Z,9.98
2024-04-22T06:50:40.266Z,10.57
2024-04-22T06:53:07.267Z,7.18
2024-04-22T06:55:35.533Z,9.10
2024-04-22T06:58:02.812Z,10.20
2024-04-22T07:00:30.181Z,7.95
2024-04-22T07:02:57.254Z,7.13
2024-04-22T07:05:24.431Z,7.55
2024-04-22T07:07:51.326Z,9.35
2024-04-22T07:10:18.406Z,6.57
2024-04-22T07:12:45.420Z,7.35
2024-04-22T07:15:14.621Z,11.32
2024-04-22T07:17:43.032Z,6.40
2024-04-22T07:20:10.349Z,7.45
2024-04-22T07:22:43.250Z,7.43
2024-04-22T07:25:10.193Z,7.13
2024-04-22T07:27:40.512Z,8.50
2024-04-22T07:30:11.755Z,9.70
2024-04-22T07:32:39.027Z,8.40
2024-04-22T07:35:06.594Z,7.53
2024-04-22T07:37:45.896Z,7.82
2024-04-22T07:40:20.691Z,6.85
2024-04-22T07:42:50.760Z,6.18
2024-04-22T07:45:19.877Z,7.15
2024-04-22T07:47:53.247Z,8.20
2024-04-22T07:50:21.394Z,8.05
2024-04-22T07:52:48.663Z,7.30
2024-04-22T07:55:15.818Z,8.40
2024-04-22T07:57:43.414Z,8.20
2024-04-22T08:00:12.928Z,7.07
2024-04-22T08:02:40.850Z,6.55
2024-04-22T08:05:08.496Z,7.35
2024-04-22T08:07:35.801Z,6.55
2024-04-22T08:10:03.296Z,9.68
2024-04-22T08:12:32.890Z,7.50
2024-04-22T08:14:59.897Z,6.72
2024-04-22T08:17:27.244Z,7.55
2024-04-22T08:19:58.978Z,8.07
2024-04-22T08:22:26.315Z,7.68
2024-04-22T08:24:58.057Z,6.55
2024-04-22T08:27:27.772Z,7.03
2024-04-22T08:29:55.140Z,8.15
2024-04-22T08:32:30.418Z,7.03
2024-04-22T08:34:57.526Z,6.05
2024-04-22T08:37:24.850Z,6.97
2024-04-22T08:39:53.490Z,8.35
2024-04-22T08:42:24.377Z,7.32
2024-04-22T08:44:55.793Z,5.70
2024-04-22T08:47:27.395Z,6.90
2024-04-22T08:49:54.390Z,6.60
2024-04-22T08:52:23.563Z,7.38
2024-04-22T08:54:50.570Z,7.97
2024-04-22T08:57:19.668Z,7.25
2024-04-22T08:59:49.770Z,7.35
2024-04-22T09:02:17.643Z,5.45
2024-04-22T09:04:47.735Z,7.47
2024-04-22T09:07:21.463Z,8.02
2024-04-22T09:10:10.686Z,6.47
2024-04-22T09:12:38.369Z,6.45
2024-04-22T09:15:08.781Z,8.30
2024-04-22T09:17:37.743Z,6.22
2024-04-22T09:20:07.281Z,6.78
2024-04-22T09:22:34.346Z,6.82
2024-04-22T09:25:01.727Z,5.25
2024-04-22T09:27:29.816Z,7.55
2024-04-22T09:30:04.090Z,8.25
2024-04-22T09:32:36.130Z,6.85
2024-04-22T09:35:17.726Z,7.45
2024-04-22T09:37:51.437Z,6.63
2024-04-22T09:40:20.610Z,5.78
2024-04-22T09:42:48.931Z,5.78
2024-04-22T09:45:16.991Z,4.93
2024-04-22T09:47:49.054Z,5.45
2024-04-22T09:50:18.469Z,6.25
2024-04-22T09:52:48.991Z,6.15
2024-04-22T09:55:17.299Z,6.82
2024-04-22T09:57:48.680Z,5.90
2024-04-22T10:00:17.611Z,5.28
2024-04-22T10:02:45.050Z,6.03
2024-04-22T10:05:13.401Z,5.22
2024-04-22T10:07:41.342Z,6.90
2024-04-22T10:10:13.285Z,5.90
2024-04-22T10:12:40.623Z,5.75
2024-04-22T10:15:17.761Z,6.35
2024-04-22T10:17:46.246Z,6.32
2024-04-22T10:20:13.834Z,5.15
2024-04-22T10:22:41.306Z,11.45
2024-04-22T10:25:09.926Z,5.60
2024-04-22T10:27:37.409Z,5.82
2024-04-22T10:30:08.870Z,6.53
2024-04-22T10:32:40.798Z,6.22
2024-04-22T10:35:07.737Z,7.65
2024-04-22T10:37:34.925Z,6.65
2024-04-22T10:40:02.236Z,7.22
2024-04-22T10:42:29.928Z,5.97
2024-04-22T10:44:59.322Z,7.15
2024-04-22T10:47:38.086Z,7.47
2024-04-22T10:50:18.588Z,8.40
2024-04-22T10:52:46.076Z,7.93
2024-04-22T10:55:15.631Z,9.10
2024-04-22T10:57:46.545Z,8.18
2024-04-22T11:00:15.872Z,7.22
2024-04-22T11:02:45.806Z,8.15
2024-04-22T11:05:40.104Z,7.55
2024-04-22T11:08:09.315Z,9.40
2024-04-22T11:10:43.954Z,7.72
2024-04-22T11:13:11.960Z,6.35
2024-04-22T11:15:39.036Z,6.47
2024-04-22T11:18:11.342Z,7.50
2024-04-22T11:20:42.583Z,6.50
2024-04-22T11:23:09.794Z,7.35
2024-04-22T11:25:37.020Z,6.03
2024-04-22T11:28:04.208Z,6.68
2024-04-22T11:30:31.159Z,6.05
2024-04-22T11:32:58.232Z,6.70
2024-04-22T11:35:25.545Z,6.32
2024-04-22T11:37:55.620Z,7.13
2024-04-22T11:40:22.748Z,6.18
2024-04-22T11:42:52.183Z,8.23
2024-04-22T11:45:19.297Z,6.95
2024-04-22T11:47:46.516Z,8.25
2024-04-22T11:50:13.618Z,7.35
2024-04-22T11:52:40.887Z,6.82
2024-04-22T11:55:08.221Z,6.90
2024-04-22T11:57:35.448Z,6.18
2024-04-22T12:00:02.622Z,5.22
2024-04-22T12:02:35.979Z,6.03
2024-04-22T12:05:10.584Z,6.65
2024-04-22T12:07:43.632Z,8.02
2024-04-22T12:10:13.755Z,9.15
2024-04-22T12:12:40.978Z,6.45
2024-04-22T12:15:09.534Z,7.13
2024-04-22T12:17:39.792Z,6.60
2024-04-22T12:20:09.889Z,6.28
2024-04-22T12:22:40.254Z,6.28
2024-04-22T12:25:07.735Z,6.53
2024-04-22T12:27:34.614Z,7.22
2024-04-22T12:30:01.487Z,5.47
2024-04-22T12:32:33.524Z,7.20
2024-04-22T12:35:04.080Z,7.82
2024-04-22T12:37:34.155Z,6.13
2024-04-22T12:40:01.070Z,7.07
2024-04-22T12:42:28.124Z,5.28
2024-04-22T12:44:55.012Z,7.68
2024-04-22T12:47:40.228Z,6.03
2024-04-22T12:50:26.034Z,6.28
2024-04-22T12:52:52.886Z,6.82
2024-04-22T12:55:19.814Z,6.90
2024-04-22T12:57:46.705Z,7.80
2024-04-22T13:00:16.332Z,6.25
2024-04-22T13:02:43.534Z,6.88
2024-04-22T13:05:10.474Z,7.30
2024-04-22T13:07:37.506Z,6.97
2024-04-22T13:10:04.875Z,5.43
2024-04-22T13:12:31.854Z,5.63
2024-04-22T13:14:58.871Z,6.28
2024-04-22T13:17:25.949Z,7.32
2024-04-22T13:19:52.891Z,9.55
2024-04-22T13:22:19.919Z,6.28
2024-04-22T13:24:47.053Z,5.65
2024-04-22T13:27:16.365Z,7.78
2024-04-22T13:29:43.469Z,6.57
2024-04-22T13:32:11.295Z,7.00
2024-04-22T13:34:38.915Z,6.68
2024-04-22T13:37:05.897Z,6.88
2024-04-22T13:39:33.070Z,6.40
2024-04-22T13:42:01.629Z,5.80
2024-04-22T13:44:28.920Z,6.13
2024-04-22T13:46:58.043Z,5.90
2024-04-22T13:49:25.014Z,7.00
2024-04-22T13:51:51.983Z,7.15
2024-04-22T13:54:18.899Z,8.02
2024-04-22T13:56:45.831Z,5.30
2024-04-22T13:59:12.879Z,7.85
2024-04-22T14:01:41.789Z,6.40
2024-04-22T14:04:11.725Z,6.78
2024-04-22T14:06:40.619Z,6.78
2024-04-22T14:09:09.552Z,4.78
2024-04-22T14:11:37.060Z,8.20
2024-04-22T14:14:03.969Z,6.53
2024-04-22T14:16:30.813Z,6.20
2024-04-22T14:18:58.000Z,5.82
2024-04-22T14:21:25.040Z,6.40
2024-04-22T14:23:52.117Z,5.43
2024-04-22T14:26:22.169Z,5.95
2024-04-22T14:28:50.725Z,6.53
2024-04-22T14:31:17.809Z,8.10
2024-04-22T14:33:44.943Z,6.65
2024-04-22T14:36:14.350Z,5.50
2024-04-22T14:38:41.608Z,6.10
2024-04-22T14:41:08.423Z,5.20
2024-04-22T14:43:35.317Z,5.65
2024-04-22T14:46:05.162Z,4.93
2024-04-22T14:48:32.622Z,5.07
2024-04-22T14:50:59.578Z,7.22
2024-04-22T14:53:27.838Z,6.70
2024-04-22T14:56:05.269Z,5.53
2024-04-22T14:58:32.247Z,4.63
2024-04-22T15:01:05.803Z,4.93
2024-04-22T15:03:38.679Z,5.57
2024-04-22T15:06:08.435Z,5.25
2024-04-22T15:08:35.495Z,4.50
2024-04-22T15:11:06.230Z,4.57
2024-04-22T15:13:36.232Z,6.07
2024-04-22T15:16:04.146Z,5.18
2024-04-22T15:18:31.170Z,4.65
2024-04-22T15:20:58.069Z,6.50
2024-04-22T15:23:25.232Z,5.57
2024-04-22T15:25:54.355Z,3.63
2024-04-22T15:28:21.457Z,3.78
2024-04-22T15:30:50.925Z,4.28
2024-04-22T15:33:19.824Z,4.85
2024-04-22T15:35:48.969Z,5.85
2024-04-22T15:38:18.088Z,5.50
2024-04-22T15:40:44.946Z,4.90
2024-04-22T15:43:12.165Z,4.55
2024-04-22T15:45:41.480Z,4.63
2024-04-22T15:48:08.911Z,4.30
2024-04-22T15:50:38.279Z,5.15
2024-04-22T15:53:05.526Z,5.07
2024-04-22T15:55:32.392Z,5.55
2024-04-22T15:57:59.272Z,4.90
2024-04-22T16:00:30.645Z,5.88
2024-04-22T16:03:05.573Z,4.82
2024-04-22T16:05:41.825Z,7.05
2024-04-22T16:08:11.422Z,4.38
2024-04-22T16:10:44.526Z,6.20
2024-04-22T16:13:15.967Z,4.45
2024-04-22T16:15:57.122Z,4.43
2024-04-22T16:18:26.592Z,6.88
2024-04-22T16:21:07.870Z,5.10
2024-04-22T16:23:38.447Z,4.95
2024-04-22T16:26:06.857Z,4.70
2024-04-22T16:28:33.835Z,4.13
2024-04-22T16:31:00.866Z,4.63
2024-04-22T16:33:30.358Z,5.35
2024-04-22T16:35:57.463Z,4.22
2024-04-22T16:38:26.715Z,5.82
2024-04-22T16:43:24.004Z,4.30
2024-04-22T16:45:50.846Z,7.88
2024-04-22T16:48:20.835Z,5.95
2024-04-22T16:51:12.815Z,4.45
2024-04-22T16:53:37.719Z,4.45
2024-04-22T16:56:11.262Z,4.68
2024-04-22T16:58:45.592Z,5.85
2024-04-22T17:01:17.060Z,5.57
2024-04-22T17:03:44.318Z,5.75
2024-04-22T17:06:11.510Z,4.65
2024-04-22T17:08:53.553Z,4.15
2024-04-22T17:11:28.808Z,4.15
2024-04-22T17:14:05.518Z,4.80
2024-04-22T17:16:36.677Z,4.13
2024-04-22T17:19:05.399Z,4.43
2024-04-22T17:21:42.315Z,5.25
2024-04-22T17:24:22.746Z,4.22
2024-04-22T17:26:51.954Z,4.55
2024-04-22T17:29:31.545Z,4.50
2024-04-22T17:32:08.491Z,4.55
2024-04-22T17:34:40.433Z,5.35
2024-04-22T17:37:23.547Z,4.53
2024-04-22T17:40:06.453Z,5.05
2024-04-22T17:42:56.379Z,3.97
2024-04-22T17:45:23.720Z,6.45
2024-04-22T17:48:32.450Z,5.93
2024-04-22T17:51:27.184Z,6.80
2024-04-22T17:54:09.670Z,5.07
2024-04-22T17:56:44.800Z,4.65
2024-04-22T17:59:27.787Z,8.35
2024-04-22T18:02:03.345Z,5.60
2024-04-22T18:04:35.227Z,6.13
2024-04-22T18:07:07.498Z,5.03
2024-04-22T18:09:38.144Z,4.05
2024-04-22T18:12:25.563Z,5.90
2024-04-22T18:15:03.164Z,5.03
2024-04-22T18:17:42.522Z,4.03
2024-04-22T18:21:08.590Z,4.32
2024-04-22T18:23:37.699Z,4.07
2024-04-22T18:26:40.421Z,6.47
2024-04-22T18:29:19.056Z,5.60
2024-04-22T18:32:02.896Z,5.07
2024-04-22T18:34:35.453Z,6.20
2024-04-22T18:37:10.860Z,5.72
2024-04-22T18:42:32.685Z,6.22
2024-04-22T18:45:25.791Z,6.35
2024-04-22T18:48:26.259Z,4.88
2024-04-22T18:51:12.040Z,5.32
2024-04-22T18:54:00.390Z,4.50
2024-04-22T18:57:06.104Z,5.25
2024-04-22T18:59:41.840Z,5.53
2024-04-22T19:02:21.227Z,4.93
2024-04-22T19:05:08.817Z,8.35
2024-04-22T19:08:04.097Z,5.88
2024-04-22T19:10:37.436Z,6.07
2024-04-22T19:13:10.138Z,4.65
2024-04-22T19:15:48.631Z,4.82
2024-04-22T19:18:30.250Z,6.20
2024-04-22T19:21:15.314Z,4.40
2024-04-22T19:23:55.256Z,5.15
2024-04-22T19:26:25.884Z,4.22
2024-04-22T19:29:06.309Z,5.10
2024-04-22T19:31:47.333Z,5.15
2024-04-22T19:34:38.717Z,4.20
2024-04-22T19:37:15.162Z,4.28
2024-04-22T19:40:20.382Z,6.07
2024-04-22T19:42:52.561Z,4.65
2024-04-22T19:45:19.427Z,4.97
2024-04-22T19:47:46.284Z,5.05
2024-04-22T19:50:13.081Z,3.83
2024-04-22T19:52:48.126Z,5.20
2024-04-22T19:55:32.329Z,3.90
2024-04-22T19:58:31.319Z,3.65
2024-04-22T20:01:27.201Z,4.75
2024-04-22T20:04:02.116Z,5.28
2024-04-22T20:07:06.692Z,4.78
2024-04-22T20:10:00.193Z,5.20
2024-04-22T20:12:40.122Z,4.07
2024-04-22T20:15:51.680Z,3.95
2024-04-22T20:18:59.833Z,4.00
2024-04-22T20:21:44.556Z,3.70
2024-04-22T20:24:18.908Z,3.25
2024-04-22T20:27:20.066Z,4.97
2024-04-22T20:30:01.833Z,5.00
2024-04-22T20:32:31.706Z,5.78
2024-04-22T20:35:31.760Z,5.00
2024-04-22T20:38:49.361Z,5.93
2024-04-22T20:41:26.035Z,6.50
2024-04-22T20:43:56.292Z,4.43
2024-04-22T20:46:39.874Z,4.47
2024-04-22T20:49:16.044Z,4.68
2024-04-22T20:52:15.322Z,3.70
2024-04-22T20:54:48.441Z,6.68
2024-04-22T20:57:36.778Z,5.60
2024-04-22T21:00:20.512Z,4.55
2024-04-22T21:06:04.721Z,4.93
2024-04-22T21:08:53.520Z,6.07
2024-04-22T21:12:35.852Z,5.43
2024-04-22T21:15:09.256Z,4.60
2024-04-22T21:17:36.465Z,4.78
2024-04-22T21:20:16.962Z,5.57
2024-04-22T21:23:01.927Z,4.45
2024-04-22T21:25:52.505Z,5.78
2024-04-22T21:28:28.901Z,4.18
2024-04-22T21:31:11.639Z,3.92
2024-04-22T21:34:06.904Z,7.28
2024-04-22T21:36:49.451Z,7.20
2024-04-22T21:39:52.412Z,5.13
2024-04-22T21:42:16.213Z,4.45
2024-04-22T21:44:43.428Z,6.00
2024-04-22T21:47:14.853Z,7.13
2024-04-22T21:49:42.175Z,6.38
2024-04-22T21:52:48.984Z,4.78
2024-04-22T21:55:51.770Z,4.75
2024-04-22T21:59:06.261Z,4.22
2024-04-22T22:02:11.113Z,4.57
2024-04-22T22:05:16.054Z,6.57
2024-04-22T22:07:42.725Z,6.43
2024-04-22T22:10:10.311Z,5.00
2024-04-22T22:12:42.278Z,5.43
2024-04-22T22:15:13.002Z,5.20
2024-04-22T22:17:56.686Z,4.70
2024-04-22T22:20:30.327Z,6.70
2024-04-22T22:23:00.759Z,4.85
2024-04-22T22:25:41.440Z,4.68
2024-04-22T22:28:16.349Z,6.05
2024-04-22T22:30:53.396Z,5.10
2024-04-22T22:33:32.003Z,5.70
2024-04-22T22:36:01.402Z,5.15
2024-04-22T22:38:44.260Z,4.65
2024-04-22T22:41:35.281Z,6.38
2024-04-22T22:44:02.419Z,6.68
2024-04-22T22:46:32.423Z,6.55
2024-04-22T22:49:01.655Z,5.03
2024-04-22T22:51:31.627Z,5.30
2024-04-22T22:54:05.432Z,5.53
2024-04-22T22:56:44.654Z,11.25
2024-04-22T22:59:14.185Z,6.18
2024-04-22T23:01:44.642Z,4.85
2024-04-22T23:04:12.980Z,5.82
2024-04-22T23:06:44.430Z,5.55
2024-04-22T23:09:32.532Z,6.60
2024-04-22T23:12:18.180Z,6.70
2024-04-22T23:14:57.324Z,4.75
2024-04-22T23:17:29.154Z,5.93
2024-04-22T23:20:00.814Z,6.10
2024-04-22T23:22:32.510Z,5.45
2024-04-22T23:25:03.135Z,5.38
2024-04-22T23:27:41.786Z,7.40
2024-04-22T23:30:16.882Z,5.68
2024-04-22T23:32:45.419Z,6.85
2024-04-22T23:35:19.763Z,6.45
2024-04-22T23:37:46.776Z,5.65
2024-04-22T23:40:14.454Z,6.22
2024-04-22T23:42:41.372Z,6.63
2024-04-22T23:45:15.984Z,5.82
2024-04-22T23:47:46.541Z,5.93
2024-04-22T23:50:31.484Z,6.10
2024-04-22T23:53:04.168Z,6.07
2024-04-22T23:55:38.616Z,5.80
2024-04-22T23:58:08.487Z,4.85
